createdAt,value
2023-04-29T00:01:40.862Z,54.80
2023-04-29T00:04:08.123Z,56.33
2023-04-29T00:06:34.995Z,56.14
2023-04-29T00:09:01.823Z,54.84
2023-04-29T00:11:28.470Z,55.04
2023-04-29T00:13:55.179Z,54.03
2023-04-29T00:16:22.210Z,55.91
2023-04-29T00:18:49.456Z,56.86
2023-04-29T00:21:16.500Z,56.96
2023-04-29T00:23:43.314Z,57.36
2023-04-29T00:26:10.155Z,57.99
2023-04-29T00:28:37.205Z,60.13
2023-04-29T00:31:04.366Z,60.37
2023-04-29T00:33:31.227Z,61.82
2023-04-29T00:35:58.089Z,62.07
2023-04-29T00:38:25.147Z,61.82
2023-04-29T00:40:52.212Z,60.56
2023-04-29T00:43:19.007Z,58.34
2023-04-29T00:45:47.232Z,57.58
2023-04-29T00:48:23.236Z,56.71
2023-04-29T00:50:51.639Z,57.58
2023-04-29T00:53:18.726Z,58.09
2023-04-29T00:55:48.056Z,59.16
2023-04-29T00:58:15.179Z,59.13
2023-04-29T01:00:43.931Z,58.97
2023-04-29T01:03:11.084Z,58.58
2023-04-29T01:05:38.223Z,58.02
2023-04-29T01:08:29.146Z,59.90
2023-04-29T01:11:12.004Z,59.39
2023-04-29T01:14:06.242Z,57.69
2023-04-29T01:16:49.941Z,57.46
2023-04-29T01:19:20.395Z,56.67
2023-04-29T01:21:51.934Z,56.84
2023-04-29T01:24:18.602Z,58.04
2023-04-29T01:26:54.626Z,58.61
2023-04-29T01:29:32.170Z,58.61
2023-04-29T01:32:05.749Z,57.42
2023-04-29T01:34:53.703Z,58.16
2023-04-29T01:37:39.274Z,60.15
2023-04-29T01:40:25.062Z,58.96
2023-04-29T01:43:03.578Z,58.96
2023-04-29T01:45:34.324Z,59.44
2023-04-29T01:48:03.143Z,60.65
2023-04-29T01:50:31.983Z,61.10
2023-04-29T01:52:58.823Z,62.60
2023-04-29T01:55:26.138Z,63.48
2023-04-29T01:57:52.938Z,66.46
2023-04-29T02:00:19.634Z,65.36
2023-04-29T02:02:46.654Z,65.53
2023-04-29T02:05:13.618Z,66.47
2023-04-29T02:07:42.049Z,65.90
2023-04-29T02:10:09.255Z,66.05
2023-04-29T02:12:36.629Z,66.43
2023-04-29T02:15:03.607Z,66.34
2023-04-29T02:17:30.583Z,66.09
2023-04-29T02:19:57.564Z,67.99
2023-04-29T02:22:24.524Z,68.05
2023-04-29T02:24:52.218Z,67.17
2023-04-29T02:27:19.329Z,65.22
2023-04-29T02:29:46.222Z,64.40
2023-04-29T02:32:15.514Z,64.17
2023-04-29T02:34:42.423Z,66.90
2023-04-29T02:37:09.327Z,67.21
2023-04-29T02:39:36.075Z,66.85
2023-04-29T02:42:03.428Z,63.86
2023-04-29T02:44:31.568Z,65.23
2023-04-29T02:46:58.749Z,64.07
2023-04-29T02:49:26.150Z,65.18
2023-04-29T02:51:53.491Z,65.86
2023-04-29T02:54:20.882Z,64.64
2023-04-29T02:56:47.924Z,64.45
2023-04-29T02:59:14.824Z,67.06
2023-04-29T03:01:42.151Z,66.66
2023-04-29T03:04:09.323Z,66.93
2023-04-29T03:06:36.627Z,66.92
2023-04-29T03:09:04.185Z,68.34
2023-04-29T03:14:06.312Z,71.02
2023-04-29T03:16:33.407Z,71.08
2023-04-29T03:19:00.244Z,70.29
2023-04-29T03:21:27.762Z,69.45
2023-04-29T03:23:54.937Z,72.54
2023-04-29T03:26:24.487Z,71.86
2023-04-29T03:28:51.964Z,71.88
2023-04-29T03:31:21.134Z,74.29
2023-04-29T03:33:48.072Z,74.08
2023-04-29T03:36:15.596Z,71.27
2023-04-29T03:38:42.535Z,74.72
2023-04-29T03:41:09.429Z,73.25
2023-04-29T03:43:36.322Z,74.74
2023-04-29T03:46:03.075Z,75.07
2023-04-29T03:48:29.865Z,74.82
2023-04-29T03:50:56.869Z,75.16
2023-04-29T03:53:23.814Z,74.05
2023-04-29T03:55:50.538Z,74.52
2023-04-29T03:58:17.481Z,74.07
2023-04-29T04:00:44.233Z,74.58
2023-04-29T04:03:11.467Z,75.87
2023-04-29T04:05:41.601Z,75.19
2023-04-29T04:08:08.422Z,76.14
2023-04-29T04:10:35.261Z,76.54
2023-04-29T04:13:02.316Z,76.63
2023-04-29T04:15:29.080Z,75.36
2023-04-29T04:17:55.912Z,72.93
2023-04-29T04:20:22.794Z,74.86
2023-04-29T04:22:49.553Z,74.88
2023-04-29T04:25:16.471Z,74.99
2023-04-29T04:27:43.355Z,75.14
2023-04-29T04:30:10.477Z,75.40
2023-04-29T04:32:37.351Z,74.80
2023-04-29T04:35:04.402Z,76.16
2023-04-29T04:37:31.205Z,73.97
2023-04-29T04:39:58.034Z,71.94
2023-04-29T04:42:25.028Z,73.59
2023-04-29T04:44:53.760Z,72.75
2023-04-29T04:47:20.533Z,71.09
2023-04-29T04:49:47.423Z,72.73
2023-04-29T04:52:14.308Z,73.99
2023-04-29T04:54:41.392Z,73.96
2023-04-29T04:57:08.252Z,73.76
2023-04-29T04:59:35.171Z,74.12
2023-04-29T05:02:02.431Z,73.92
2023-04-29T05:04:29.319Z,73.97
2023-04-29T05:06:56.267Z,71.50
2023-04-29T05:09:23.700Z,70.86
2023-04-29T05:11:50.481Z,70.98
2023-04-29T05:14:18.255Z,70.43
2023-04-29T05:16:46.808Z,70.44
2023-04-29T05:19:14.512Z,69.78
2023-04-29T05:21:41.246Z,68.66
2023-04-29T05:24:10.990Z,68.88
2023-04-29T05:26:38.484Z,69.41
2023-04-29T05:29:06.977Z,66.73
2023-04-29T05:31:33.889Z,68.92
2023-04-29T05:34:00.769Z,66.76
2023-04-29T05:36:28.264Z,68.58
2023-04-29T05:38:54.997Z,69.43
2023-04-29T05:41:22.250Z,70.75
2023-04-29T05:43:48.986Z,71.46
2023-04-29T05:46:16.778Z,71.34
2023-04-29T05:48:43.596Z,71.65
2023-04-29T05:51:10.480Z,70.13
2023-04-29T05:53:38.585Z,67.80
2023-04-29T05:56:08.359Z,67.27
2023-04-29T05:58:35.687Z,64.46
2023-04-29T06:01:03.252Z,63.20
2023-04-29T06:03:31.517Z,63.78
2023-04-29T06:05:59.116Z,62.40
2023-04-29T06:08:26.473Z,60.90
2023-04-29T06:10:53.353Z,62.62
2023-04-29T06:13:20.137Z,58.68
2023-04-29T06:15:47.009Z,58.49
2023-04-29T06:18:13.985Z,54.74
2023-04-29T06:20:43.948Z,53.65
2023-04-29T06:23:10.736Z,53.47
2023-04-29T06:25:37.695Z,53.75
2023-04-29T06:28:04.656Z,51.35
2023-04-29T06:30:31.322Z,51.49
2023-04-29T06:32:58.346Z,51.38
2023-04-29T06:35:25.404Z,51.41
2023-04-29T06:37:52.973Z,50.28
2023-04-29T06:40:20.267Z,50.10
2023-04-29T06:42:47.499Z,48.64
2023-04-29T06:45:14.645Z,47.09
2023-04-29T06:47:41.433Z,47.90
2023-04-29T06:50:09.075Z,48.90
2023-04-29T06:52:35.911Z,46.04
2023-04-29T06:55:03.550Z,54.62
2023-04-29T06:57:30.290Z,48.79
2023-04-29T06:59:57.313Z,44.90
2023-04-29T07:02:24.116Z,45.47
2023-04-29T07:04:51.433Z,44.20
2023-04-29T07:07:18.244Z,45.62
2023-04-29T07:09:45.300Z,46.04
2023-04-29T07:12:12.024Z,47.74
2023-04-29T07:14:38.884Z,45.25
2023-04-29T07:17:06.384Z,46.94
2023-04-29T07:19:33.347Z,44.47
2023-04-29T07:22:00.091Z,44.43
2023-04-29T07:24:26.977Z,45.03
2023-04-29T07:26:54.045Z,44.99
2023-04-29T07:29:20.907Z,45.17
2023-04-29T07:31:48.632Z,45.66
2023-04-29T07:34:15.397Z,46.77
2023-04-29T07:36:42.156Z,47.10
2023-04-29T07:39:09.483Z,46.28
2023-04-29T07:41:38.146Z,47.60
2023-04-29T07:44:05.176Z,47.25
2023-04-29T07:46:32.185Z,46.00
2023-04-29T07:48:59.260Z,47.26
2023-04-29T07:51:35.073Z,43.20
2023-04-29T07:54:02.348Z,45.64
2023-04-29T07:56:29.146Z,45.75
2023-04-29T07:58:56.030Z,44.65
2023-04-29T08:01:23.234Z,46.87
2023-04-29T08:03:50.520Z,45.04
2023-04-29T08:06:20.942Z,44.64
2023-04-29T08:08:48.503Z,43.73
2023-04-29T08:11:21.767Z,43.12
2023-04-29T08:13:48.944Z,43.31
2023-04-29T08:16:16.104Z,42.54
2023-04-29T08:18:43.213Z,43.90
2023-04-29T08:21:11.943Z,44.26
2023-04-29T08:23:41.737Z,43.99
2023-04-29T08:26:11.155Z,40.07
2023-04-29T08:28:38.423Z,42.73
2023-04-29T08:31:10.873Z,42.80
2023-04-29T08:33:37.676Z,41.14
2023-04-29T08:36:04.792Z,41.70
2023-04-29T08:38:32.180Z,39.05
2023-04-29T08:40:58.917Z,39.15
2023-04-29T08:43:27.016Z,35.46
2023-04-29T08:45:54.499Z,36.96
2023-04-29T08:48:24.936Z,36.57
2023-04-29T08:50:52.068Z,35.52
2023-04-29T08:53:19.237Z,34.09
2023-04-29T08:55:47.406Z,36.52
2023-04-29T08:58:15.659Z,37.32
2023-04-29T09:00:43.887Z,35.39
2023-04-29T09:03:34.982Z,38.30
2023-04-29T09:06:03.551Z,37.06
2023-04-29T09:08:30.458Z,36.79
2023-04-29T09:10:58.632Z,38.11
2023-04-29T09:13:30.425Z,38.47
2023-04-29T09:18:42.749Z,40.84
2023-04-29T09:21:24.323Z,40.76
2023-04-29T09:23:56.620Z,40.48
2023-04-29T09:26:24.299Z,41.30
2023-04-29T09:29:08.245Z,39.80
2023-04-29T09:31:35.476Z,39.83
2023-04-29T09:34:02.299Z,39.25
2023-04-29T09:36:41.036Z,40.89
2023-04-29T09:39:19.257Z,41.06
2023-04-29T09:41:55.890Z,41.08
2023-04-29T09:44:24.733Z,40.98
2023-04-29T09:47:05.329Z,39.89
2023-04-29T09:49:33.722Z,39.72
2023-04-29T09:52:02.044Z,37.88
2023-04-29T09:54:31.123Z,37.20
2023-04-29T09:57:00.277Z,34.88
2023-04-29T09:59:27.335Z,38.10
2023-04-29T10:01:58.155Z,38.16
2023-04-29T10:04:27.334Z,38.95
2023-04-29T10:06:56.177Z,39.73
2023-04-29T10:09:23.940Z,40.52
2023-04-29T10:11:53.046Z,41.93
2023-04-29T10:14:22.028Z,42.65
2023-04-29T10:16:51.242Z,41.32
2023-04-29T10:19:35.981Z,40.97
2023-04-29T10:22:11.456Z,41.05
2023-04-29T10:24:39.660Z,40.46
2023-04-29T10:27:13.474Z,38.97
2023-04-29T10:29:41.739Z,38.21
2023-04-29T10:32:13.757Z,40.34
2023-04-29T10:34:42.983Z,40.14
2023-04-29T10:37:13.728Z,40.30
2023-04-29T10:39:51.122Z,38.89
2023-04-29T10:42:33.945Z,37.34
2023-04-29T10:45:20.284Z,37.47
2023-04-29T10:48:13.403Z,39.97
2023-04-29T10:51:03.813Z,34.61
2023-04-29T10:53:30.893Z,34.57
2023-04-29T10:56:09.856Z,33.77
2023-04-29T10:58:44.975Z,35.93
2023-04-29T11:01:17.085Z,33.27
2023-04-29T11:03:55.657Z,34.63
2023-04-29T11:06:24.731Z,37.77
2023-04-29T11:09:15.014Z,36.29
2023-04-29T11:12:02.958Z,34.84
2023-04-29T11:14:43.900Z,35.16
2023-04-29T11:17:15.826Z,35.21
2023-04-29T11:19:47.224Z,35.28
2023-04-29T11:22:21.695Z,35.02
2023-04-29T11:25:00.517Z,36.77
2023-04-29T11:27:34.837Z,35.36
2023-04-29T11:30:06.355Z,34.32
2023-04-29T11:32:39.305Z,34.45
2023-04-29T11:35:16.776Z,34.96
2023-04-29T11:37:47.530Z,34.01
2023-04-29T11:40:15.316Z,33.20
2023-04-29T11:42:48.020Z,33.32
2023-04-29T11:45:18.528Z,33.69
2023-04-29T11:47:47.068Z,34.71
2023-04-29T11:50:17.966Z,33.84
2023-04-29T11:52:47.263Z,33.63
2023-04-29T11:55:14.896Z,35.10
2023-04-29T11:57:41.972Z,34.88
2023-04-29T12:00:13.091Z,32.93
2023-04-29T12:02:43.885Z,34.46
2023-04-29T12:05:13.296Z,34.17
2023-04-29T12:07:40.562Z,33.83
2023-04-29T12:10:12.011Z,34.96
2023-04-29T12:12:41.477Z,31.56
2023-04-29T12:15:10.486Z,32.90
2023-04-29T12:17:38.432Z,33.66
2023-04-29T12:20:12.326Z,33.75
2023-04-29T12:22:39.773Z,33.26
2023-04-29T12:25:08.147Z,32.34
2023-04-29T12:27:36.512Z,33.85
2023-04-29T12:30:10.787Z,32.71
2023-04-29T12:32:38.967Z,31.90
2023-04-29T12:35:06.624Z,32.90
2023-04-29T12:37:34.216Z,32.44
2023-04-29T12:40:01.145Z,32.33
2023-04-29T12:42:34.229Z,32.94
2023-04-29T12:45:01.164Z,34.18
2023-04-29T12:47:37.667Z,34.69
2023-04-29T12:50:07.374Z,35.22
2023-04-29T12:52:36.553Z,34.17
2023-04-29T12:55:05.185Z,33.22
2023-04-29T12:57:32.404Z,34.73
2023-04-29T12:59:59.664Z,33.20
2023-04-29T13:02:28.136Z,33.75
2023-04-29T13:04:55.469Z,33.97
2023-04-29T13:07:22.596Z,34.20
2023-04-29T13:09:52.697Z,34.59
2023-04-29T13:12:19.554Z,36.39
2023-04-29T13:14:46.473Z,36.54
2023-04-29T13:17:16.414Z,36.98
2023-04-29T13:19:57.583Z,37.72
2023-04-29T13:22:24.567Z,38.07
2023-04-29T13:25:32.593Z,37.85
2023-04-29T13:28:18.252Z,38.93
2023-04-29T13:30:45.280Z,39.52
2023-04-29T13:33:16.437Z,39.62
2023-04-29T13:35:44.579Z,39.43
2023-04-29T13:38:15.648Z,40.29
2023-04-29T13:40:46.961Z,40.88
2023-04-29T13:43:20.928Z,40.48
2023-04-29T13:59:36.159Z,40.44
2023-04-29T14:04:31.211Z,39.84
2023-04-29T14:07:01.946Z,39.81
2023-04-29T14:09:42.498Z,40.29
2023-04-29T15:01:01.684Z,38.93
2023-04-29T15:04:09.270Z,39.45
2023-04-29T15:06:44.484Z,40.30
2023-04-29T15:09:11.567Z,40.51
2023-04-29T16:46:26.350Z,44.46
2023-04-29T16:49:33.620Z,44.30
2023-04-29T16:55:05.974Z,45.82
2023-04-29T18:00:57.101Z,56.38
2023-04-29T18:03:42.066Z,56.67
2023-04-29T18:06:09.740Z,57.44
2023-04-29T18:08:42.548Z,57.07
2023-04-29T18:14:09.264Z,56.82
2023-04-29T19:56:39.550Z,62.04
2023-04-29T19:59:06.900Z,62.07
2023-04-29T20:01:34.185Z,62.61
2023-04-29T20:04:08.439Z,63.89
2023-04-29T20:12:55.747Z,64.14
2023-04-29T20:15:22.960Z,65.66
2023-04-29T20:17:49.733Z,65.79
2023-04-29T20:20:16.852Z,67.16
2023-04-29T20:22:43.976Z,67.69
2023-04-29T20:25:11.279Z,67.90
2023-04-29T20:27:43.583Z,67.84
2023-04-29T20:30:10.717Z,67.32
2023-04-29T20:32:38.173Z,67.97
2023-04-29T20:35:06.040Z,67.69
2023-04-29T20:37:37.414Z,68.99
2023-04-29T20:40:08.309Z,69.55
2023-04-29T20:42:50.392Z,68.11
2023-04-29T22:09:00.549Z,71.39
2023-04-29T22:11:27.672Z,72.28
2023-04-29T22:13:55.249Z,72.24
2023-04-29T22:16:24.095Z,73.31
2023-04-29T22:19:02.098Z,72.35
2023-04-29T22:21:29.374Z,71.89
2023-04-29T22:24:03.668Z,71.84
